Providence, Rhode Island
Traffic Map
Current Weather Conditions
Providence, Rhode Island
Clear
Clear
22°
Feels Like: 22°
Wind Chill: 22° Ceiling: Unl
Heat Index: 22° Visibility: 10mi
Dew Point: 14° Wind: 8mph
Humidity: 63% Direction: 150° (SSE)
Pressure: 30.01in Gusts: 0mph
Raw Report DataKPVD 251451Z 15007KT 10SM CLR 22/14 A3001 RMK AO2 SLP163 T02170144 56004
Traffic Incident Summary
Active as of:
Severity:
Category:
InformationThere was an issue retrieving the traffic information for this location. Please try a different location or try again shortly.
Advertisements
Track Severe Weather on mobile